Terminal Aerodrome Forecast
Issued by NWS

Home | Current Version | Previous Version | Text Only | Print | Product List | Glossary On
Versions: 1 2 3 4 5 6 7 8 9 10 11 12 13 14 15 16 17 18
000
FTUS44 KCRP 312324
TAFALI
TAF
KALI 312324Z 0100/0124 12010KT P6SM VCTS SCT022CB BKN100
      TEMPO 0100/0103 VRB20G30KT 2SM +TSRA BR BKN022CB
     FM010400 16007KT P6SM SCT024 BKN090
     FM011500 14013KT P6SM SCT035 BKN080=

USA.gov is the U.S. government's official web portal to all federal, state and local government web resources and services.